sensor_id;sensor_type;location;lat;lon;timestamp;temperature;humidity
1351;DHT22;669;50.206;9.998;2022-11-10T00:02:26;8.30;90.50
1351;DHT22;669;50.206;9.998;2022-11-10T00:04:54;8.10;87.00
1351;DHT22;669;50.206;9.998;2022-11-10T00:07:23;8.00;87.30
1351;DHT22;669;50.206;9.998;2022-11-10T00:09:53;7.90;87.60
1351;DHT22;669;50.206;9.998;2022-11-10T00:12:21;7.90;89.00
1351;DHT22;669;50.206;9.998;2022-11-10T00:14:49;7.90;89.10
1351;DHT22;669;50.206;9.998;2022-11-10T00:17:35;7.80;87.90
1351;DHT22;669;50.206;9.998;2022-11-10T00:20:04;7.80;88.30
1351;DHT22;669;50.206;9.998;2022-11-10T00:22:33;7.70;88.40
1351;DHT22;669;50.206;9.998;2022-11-10T00:25:03;7.70;88.70
1351;DHT22;669;50.206;9.998;2022-11-10T00:27:31;7.70;88.50
1351;DHT22;669;50.206;9.998;2022-11-10T00:30:00;7.60;89.00
1351;DHT22;669;50.206;9.998;2022-11-10T00:32:28;7.60;89.30
1351;DHT22;669;50.206;9.998;2022-11-10T00:34:56;7.70;89.70
1351;DHT22;669;50.206;9.998;2022-11-10T00:37:23;7.70;90.40
1351;DHT22;669;50.206;9.998;2022-11-10T00:39:51;7.80;90.70
1351;DHT22;669;50.206;9.998;2022-11-10T00:42:21;7.80;90.50
1351;DHT22;669;50.206;9.998;2022-11-10T00:44:48;7.80;90.20
1351;DHT22;669;50.206;9.998;2022-11-10T00:47:16;7.70;87.00
1351;DHT22;669;50.206;9.998;2022-11-10T00:49:44;7.60;86.10
1351;DHT22;669;50.206;9.998;2022-11-10T00:52:12;7.40;85.40
1351;DHT22;669;50.206;9.998;2022-11-10T00:54:40;7.30;85.50
1351;DHT22;669;50.206;9.998;2022-11-10T00:57:08;7.20;87.10
1351;DHT22;669;50.206;9.998;2022-11-10T00:59:37;7.20;87.20
1351;DHT22;669;50.206;9.998;2022-11-10T01:02:05;7.10;87.30
1351;DHT22;669;50.206;9.998;2022-11-10T01:04:33;7.10;87.60
1351;DHT22;669;50.206;9.998;2022-11-10T01:07:01;7.10;89.50
1351;DHT22;669;50.206;9.998;2022-11-10T01:09:29;7.20;90.00
1351;DHT22;669;50.206;9.998;2022-11-10T01:11:57;7.30;90.20
1351;DHT22;669;50.206;9.998;2022-11-10T01:14:25;7.30;89.20
1351;DHT22;669;50.206;9.998;2022-11-10T01:16:54;7.20;87.60
1351;DHT22;669;50.206;9.998;2022-11-10T01:19:22;7.10;86.50
1351;DHT22;669;50.206;9.998;2022-11-10T01:21:50;7.10;87.30
1351;DHT22;669;50.206;9.998;2022-11-10T01:24:19;7.10;87.80
1351;DHT22;669;50.206;9.998;2022-11-10T01:26:48;7.00;87.30
1351;DHT22;669;50.206;9.998;2022-11-10T01:29:16;7.10;88.50
1351;DHT22;669;50.206;9.998;2022-11-10T01:31:44;7.10;89.60
1351;DHT22;669;50.206;9.998;2022-11-10T01:34:13;7.20;89.50
1351;DHT22;669;50.206;9.998;2022-11-10T01:36:41;7.20;88.80
1351;DHT22;669;50.206;9.998;2022-11-10T01:39:09;7.20;88.40
1351;DHT22;669;50.206;9.998;2022-11-10T01:41:37;7.20;87.30
1351;DHT22;669;50.206;9.998;2022-11-10T01:44:13;7.10;86.50
1351;DHT22;669;50.206;9.998;2022-11-10T01:46:41;7.00;86.30
1351;DHT22;669;50.206;9.998;2022-11-10T01:49:12;6.90;86.30
1351;DHT22;669;50.206;9.998;2022-11-10T01:51:47;6.90;86.30
1351;DHT22;669;50.206;9.998;2022-11-10T01:54:18;6.80;87.40
1351;DHT22;669;50.206;9.998;2022-11-10T01:56:49;6.80;86.90
1351;DHT22;669;50.206;9.998;2022-11-10T01:59:21;6.80;87.60
1351;DHT22;669;50.206;9.998;2022-11-10T02:01:53;6.80;89.00
1351;DHT22;669;50.206;9.998;2022-11-10T02:04:23;6.90;89.70
1351;DHT22;669;50.206;9.998;2022-11-10T02:06:53;6.90;89.50
1351;DHT22;669;50.206;9.998;2022-11-10T02:09:21;6.90;88.60
1351;DHT22;669;50.206;9.998;2022-11-10T02:11:51;6.90;86.10
1351;DHT22;669;50.206;9.998;2022-11-10T02:14:20;6.70;81.50
1351;DHT22;669;50.206;9.998;2022-11-10T02:16:48;6.40;80.50
1351;DHT22;669;50.206;9.998;2022-11-10T02:19:18;6.30;82.80
1351;DHT22;669;50.206;9.998;2022-11-10T02:21:48;6.10;83.20
1351;DHT22;669;50.206;9.998;2022-11-10T02:24:16;6.10;83.80
1351;DHT22;669;50.206;9.998;2022-11-10T02:26:48;6.00;85.70
1351;DHT22;669;50.206;9.998;2022-11-10T02:29:16;6.00;85.50
1351;DHT22;669;50.206;9.998;2022-11-10T02:31:44;6.00;85.50
1351;DHT22;669;50.206;9.998;2022-11-10T02:34:12;6.00;83.80
1351;DHT22;669;50.206;9.998;2022-11-10T02:36:40;5.80;82.80
1351;DHT22;669;50.206;9.998;2022-11-10T02:39:09;5.70;84.40
1351;DHT22;669;50.206;9.998;2022-11-10T02:41:37;5.70;85.00
1351;DHT22;669;50.206;9.998;2022-11-10T02:44:06;5.70;85.80
1351;DHT22;669;50.206;9.998;2022-11-10T02:46:34;5.80;86.70
1351;DHT22;669;50.206;9.998;2022-11-10T02:49:03;5.80;87.90
1351;DHT22;669;50.206;9.998;2022-11-10T02:51:31;5.90;88.00
1351;DHT22;669;50.206;9.998;2022-11-10T02:53:59;6.00;88.40
1351;DHT22;669;50.206;9.998;2022-11-10T02:56:28;6.10;89.20
1351;DHT22;669;50.206;9.998;2022-11-10T02:58:56;6.20;89.10
1351;DHT22;669;50.206;9.998;2022-11-10T03:01:24;6.20;87.30
1351;DHT22;669;50.206;9.998;2022-11-10T03:03:52;6.10;85.90
1351;DHT22;669;50.206;9.998;2022-11-10T03:06:20;6.00;86.10
1351;DHT22;669;50.206;9.998;2022-11-10T03:08:48;6.10;87.30
1351;DHT22;669;50.206;9.998;2022-11-10T03:11:16;6.10;88.60
1351;DHT22;669;50.206;9.998;2022-11-10T03:13:45;6.20;87.30
1351;DHT22;669;50.206;9.998;2022-11-10T03:16:27;6.10;85.90
1351;DHT22;669;50.206;9.998;2022-11-10T03:18:55;6.00;83.60
1351;DHT22;669;50.206;9.998;2022-11-10T03:21:23;6.00;84.10
1351;DHT22;669;50.206;9.998;2022-11-10T03:23:51;5.90;84.30
1351;DHT22;669;50.206;9.998;2022-11-10T03:26:19;5.90;85.40
1351;DHT22;669;50.206;9.998;2022-11-10T03:28:49;5.90;85.50
1351;DHT22;669;50.206;9.998;2022-11-10T03:31:17;5.90;86.10
1351;DHT22;669;50.206;9.998;2022-11-10T03:33:45;5.90;86.20
1351;DHT22;669;50.206;9.998;2022-11-10T03:36:13;5.90;86.40
1351;DHT22;669;50.206;9.998;2022-11-10T03:38:41;6.00;86.40
1351;DHT22;669;50.206;9.998;2022-11-10T03:41:09;6.00;86.20
1351;DHT22;669;50.206;9.998;2022-11-10T03:43:46;6.00;86.10
1351;DHT22;669;50.206;9.998;2022-11-10T03:46:15;6.00;84.60
1351;DHT22;669;50.206;9.998;2022-11-10T03:48:44;5.90;84.20
1351;DHT22;669;50.206;9.998;2022-11-10T03:51:19;5.90;83.80
1351;DHT22;669;50.206;9.998;2022-11-10T03:53:47;5.80;84.50
1351;DHT22;669;50.206;9.998;2022-11-10T03:56:15;5.80;85.30
1351;DHT22;669;50.206;9.998;2022-11-10T03:58:43;5.90;85.50
1351;DHT22;669;50.206;9.998;2022-11-10T04:01:11;5.90;86.80
1351;DHT22;669;50.206;9.998;2022-11-10T04:03:40;6.00;87.10
1351;DHT22;669;50.206;9.998;2022-11-10T04:06:14;6.00;87.80
1351;DHT22;669;50.206;9.998;2022-11-10T04:09:00;6.10;89.30
1351;DHT22;669;50.206;9.998;2022-11-10T04:11:29;6.20;88.10
1351;DHT22;669;50.206;9.998;2022-11-10T04:14:15;6.20;87.30
1351;DHT22;669;50.206;9.998;2022-11-10T04:17:01;6.30;88.10
1351;DHT22;669;50.206;9.998;2022-11-10T04:19:31;6.30;88.10
1351;DHT22;669;50.206;9.998;2022-11-10T04:21:59;6.30;87.30
1351;DHT22;669;50.206;9.998;2022-11-10T04:24:26;6.40;87.60
1351;DHT22;669;50.206;9.998;2022-11-10T04:26:54;6.40;87.40
1351;DHT22;669;50.206;9.998;2022-11-10T04:29:22;6.40;85.80
1351;DHT22;669;50.206;9.998;2022-11-10T04:31:50;6.30;85.90
1351;DHT22;669;50.206;9.998;2022-11-10T04:34:18;6.30;86.10
1351;DHT22;669;50.206;9.998;2022-11-10T04:36:47;6.20;87.20
1351;DHT22;669;50.206;9.998;2022-11-10T04:39:15;6.30;87.60
1351;DHT22;669;50.206;9.998;2022-11-10T04:41:43;6.30;87.90
1351;DHT22;669;50.206;9.998;2022-11-10T04:44:11;6.30;88.60
1351;DHT22;669;50.206;9.998;2022-11-10T04:46:39;6.40;89.40
1351;DHT22;669;50.206;9.998;2022-11-10T04:49:09;6.50;89.80
1351;DHT22;669;50.206;9.998;2022-11-10T04:51:38;6.50;89.10
1351;DHT22;669;50.206;9.998;2022-11-10T04:54:09;6.50;88.30
1351;DHT22;669;50.206;9.998;2022-11-10T04:56:37;6.50;87.90
1351;DHT22;669;50.206;9.998;2022-11-10T04:59:05;6.50;87.30
1351;DHT22;669;50.206;9.998;2022-11-10T05:01:33;6.50;86.80
1351;DHT22;669;50.206;9.998;2022-11-10T05:04:01;6.50;87.30
1351;DHT22;669;50.206;9.998;2022-11-10T05:06:31;6.50;87.90
1351;DHT22;669;50.206;9.998;2022-11-10T05:08:59;6.50;88.10
1351;DHT22;669;50.206;9.998;2022-11-10T05:11:28;6.50;89.10
1351;DHT22;669;50.206;9.998;2022-11-10T05:13:56;6.50;89.10
1351;DHT22;669;50.206;9.998;2022-11-10T05:16:24;6.60;89.20
1351;DHT22;669;50.206;9.998;2022-11-10T05:18:52;6.60;89.00
1351;DHT22;669;50.206;9.998;2022-11-10T05:21:21;6.60;89.00
1351;DHT22;669;50.206;9.998;2022-11-10T05:23:49;6.60;88.60
1351;DHT22;669;50.206;9.998;2022-11-10T05:26:17;6.60;88.00
1351;DHT22;669;50.206;9.998;2022-11-10T05:28:46;6.60;87.50
1351;DHT22;669;50.206;9.998;2022-11-10T05:31:14;6.60;88.00
1351;DHT22;669;50.206;9.998;2022-11-10T05:33:42;6.60;87.90
1351;DHT22;669;50.206;9.998;2022-11-10T05:36:10;6.60;87.80
1351;DHT22;669;50.206;9.998;2022-11-10T05:38:38;6.60;87.50
1351;DHT22;669;50.206;9.998;2022-11-10T05:41:09;6.60;87.20
1351;DHT22;669;50.206;9.998;2022-11-10T05:43:37;6.50;87.30
1351;DHT22;669;50.206;9.998;2022-11-10T05:46:07;6.40;87.10
1351;DHT22;669;50.206;9.998;2022-11-10T05:48:35;6.40;87.30
1351;DHT22;669;50.206;9.998;2022-11-10T05:51:03;6.40;87.30
1351;DHT22;669;50.206;9.998;2022-11-10T05:53:31;6.30;87.80
1351;DHT22;669;50.206;9.998;2022-11-10T05:55:59;6.30;88.00
1351;DHT22;669;50.206;9.998;2022-11-10T05:58:26;6.30;88.40
1351;DHT22;669;50.206;9.998;2022-11-10T06:00:54;6.30;88.50
1351;DHT22;669;50.206;9.998;2022-11-10T06:03:24;6.30;88.80
1351;DHT22;669;50.206;9.998;2022-11-10T06:05:52;6.30;87.70
1351;DHT22;669;50.206;9.998;2022-11-10T06:08:20;6.20;87.10
1351;DHT22;669;50.206;9.998;2022-11-10T06:10:48;6.10;87.30
1351;DHT22;669;50.206;9.998;2022-11-10T06:13:16;6.10;87.90
1351;DHT22;669;50.206;9.998;2022-11-10T06:15:45;6.10;89.10
1351;DHT22;669;50.206;9.998;2022-11-10T06:18:16;6.10;88.80
1351;DHT22;669;50.206;9.998;2022-11-10T06:20:46;6.10;88.40
1351;DHT22;669;50.206;9.998;2022-11-10T06:23:14;6.10;89.70
1351;DHT22;669;50.206;9.998;2022-11-10T06:25:42;6.10;89.50
1351;DHT22;669;50.206;9.998;2022-11-10T06:28:10;6.10;89.20
1351;DHT22;669;50.206;9.998;2022-11-10T06:30:40;6.20;89.90
1351;DHT22;669;50.206;9.998;2022-11-10T06:33:08;6.20;89.50
1351;DHT22;669;50.206;9.998;2022-11-10T06:35:36;6.30;90.20
1351;DHT22;669;50.206;9.998;2022-11-10T06:38:08;6.30;89.80
1351;DHT22;669;50.206;9.998;2022-11-10T06:40:36;6.30;89.70
1351;DHT22;669;50.206;9.998;2022-11-10T06:43:04;6.40;90.00
1351;DHT22;669;50.206;9.998;2022-11-10T06:45:32;6.40;90.20
1351;DHT22;669;50.206;9.998;2022-11-10T06:48:01;6.50;90.20
1351;DHT22;669;50.206;9.998;2022-11-10T06:50:30;6.50;90.10
1351;DHT22;669;50.206;9.998;2022-11-10T06:52:59;6.50;90.20
1351;DHT22;669;50.206;9.998;2022-11-10T06:55:28;6.60;90.20
1351;DHT22;669;50.206;9.998;2022-11-10T06:57:57;6.70;90.30
1351;DHT22;669;50.206;9.998;2022-11-10T07:00:26;6.70;90.60
1351;DHT22;669;50.206;9.998;2022-11-10T07:02:59;6.80;90.50
1351;DHT22;669;50.206;9.998;2022-11-10T07:05:27;7.00;90.60
1351;DHT22;669;50.206;9.998;2022-11-10T07:07:55;7.10;90.80
1351;DHT22;669;50.206;9.998;2022-11-10T07:10:23;7.20;90.90
1351;DHT22;669;50.206;9.998;2022-11-10T07:12:56;7.40;91.00
1351;DHT22;669;50.206;9.998;2022-11-10T07:15:24;7.50;91.10
1351;DHT22;669;50.206;9.998;2022-11-10T07:17:52;7.60;91.00
1351;DHT22;669;50.206;9.998;2022-11-10T07:20:21;7.70;90.90
1351;DHT22;669;50.206;9.998;2022-11-10T07:22:49;7.80;90.70
1351;DHT22;669;50.206;9.998;2022-11-10T07:25:16;7.80;90.80
1351;DHT22;669;50.206;9.998;2022-11-10T07:27:44;7.80;90.80
1351;DHT22;669;50.206;9.998;2022-11-10T07:30:14;7.90;90.80
1351;DHT22;669;50.206;9.998;2022-11-10T07:32:42;7.90;90.80
1351;DHT22;669;50.206;9.998;2022-11-10T07:35:10;7.90;90.80
1351;DHT22;669;50.206;9.998;2022-11-10T07:37:38;7.90;90.80
1351;DHT22;669;50.206;9.998;2022-11-10T07:40:07;7.90;90.70
1351;DHT22;669;50.206;9.998;2022-11-10T07:42:38;7.90;90.60
1351;DHT22;669;50.206;9.998;2022-11-10T07:45:07;7.80;90.40
1351;DHT22;669;50.206;9.998;2022-11-10T07:47:37;7.90;90.60
1351;DHT22;669;50.206;9.998;2022-11-10T07:50:06;7.80;90.30
1351;DHT22;669;50.206;9.998;2022-11-10T07:52:34;7.80;90.10
1351;DHT22;669;50.206;9.998;2022-11-10T07:55:02;7.80;90.20
1351;DHT22;669;50.206;9.998;2022-11-10T07:57:30;7.80;90.60
1351;DHT22;669;50.206;9.998;2022-11-10T07:59:59;7.90;90.80
1351;DHT22;669;50.206;9.998;2022-11-10T08:02:27;7.90;90.60
1351;DHT22;669;50.206;9.998;2022-11-10T08:04:56;8.00;90.80
1351;DHT22;669;50.206;9.998;2022-11-10T08:07:24;8.10;90.70
1351;DHT22;669;50.206;9.998;2022-11-10T08:09:52;8.20;90.90
1351;DHT22;669;50.206;9.998;2022-11-10T08:12:20;8.30;90.90
1351;DHT22;669;50.206;9.998;2022-11-10T08:14:49;8.40;91.00
1351;DHT22;669;50.206;9.998;2022-11-10T08:17:16;8.50;91.00
1351;DHT22;669;50.206;9.998;2022-11-10T08:19:44;8.60;90.90
1351;DHT22;669;50.206;9.998;2022-11-10T08:22:14;8.70;91.10
1351;DHT22;669;50.206;9.998;2022-11-10T08:24:41;8.80;91.10
1351;DHT22;669;50.206;9.998;2022-11-10T08:27:09;8.90;91.00
1351;DHT22;669;50.206;9.998;2022-11-10T08:29:37;9.00;90.80
1351;DHT22;669;50.206;9.998;2022-11-10T08:32:05;9.10;90.50
1351;DHT22;669;50.206;9.998;2022-11-10T08:34:33;9.20;90.40
1351;DHT22;669;50.206;9.998;2022-11-10T08:37:01;9.20;90.20
1351;DHT22;669;50.206;9.998;2022-11-10T08:39:30;9.30;90.00
1351;DHT22;669;50.206;9.998;2022-11-10T08:42:05;9.40;89.50
1351;DHT22;669;50.206;9.998;2022-11-10T08:44:33;9.40;88.60
1351;DHT22;669;50.206;9.998;2022-11-10T08:47:01;9.50;88.70
1351;DHT22;669;50.206;9.998;2022-11-10T08:49:29;9.60;88.80
1351;DHT22;669;50.206;9.998;2022-11-10T08:51:57;9.60;86.30
1351;DHT22;669;50.206;9.998;2022-11-10T08:54:25;9.70;87.30
1351;DHT22;669;50.206;9.998;2022-11-10T08:56:54;9.80;86.80
1351;DHT22;669;50.206;9.998;2022-11-10T08:59:22;9.80;86.10
1351;DHT22;669;50.206;9.998;2022-11-10T09:01:50;9.90;84.60
1351;DHT22;669;50.206;9.998;2022-11-10T09:04:18;9.90;84.40
1351;DHT22;669;50.206;9.998;2022-11-10T09:06:46;9.90;84.40
1351;DHT22;669;50.206;9.998;2022-11-10T09:09:14;9.90;83.70
1351;DHT22;669;50.206;9.998;2022-11-10T09:11:42;9.90;82.80
1351;DHT22;669;50.206;9.998;2022-11-10T09:14:11;9.90;82.90
1351;DHT22;669;50.206;9.998;2022-11-10T09:16:39;9.90;80.00
1351;DHT22;669;50.206;9.998;2022-11-10T09:19:07;9.90;80.20
1351;DHT22;669;50.206;9.998;2022-11-10T09:21:35;9.90;80.60
1351;DHT22;669;50.206;9.998;2022-11-10T09:24:04;10.00;79.30
1351;DHT22;669;50.206;9.998;2022-11-10T09:26:32;10.00;78.40
1351;DHT22;669;50.206;9.998;2022-11-10T09:29:00;10.00;78.80
1351;DHT22;669;50.206;9.998;2022-11-10T09:31:29;10.00;78.60
1351;DHT22;669;50.206;9.998;2022-11-10T09:33:57;10.10;78.80
1351;DHT22;669;50.206;9.998;2022-11-10T09:36:25;10.20;78.90
1351;DHT22;669;50.206;9.998;2022-11-10T09:38:53;10.30;77.60
1351;DHT22;669;50.206;9.998;2022-11-10T09:41:21;10.30;76.30
1351;DHT22;669;50.206;9.998;2022-11-10T09:43:57;10.30;76.40
1351;DHT22;669;50.206;9.998;2022-11-10T09:46:33;10.40;76.30
1351;DHT22;669;50.206;9.998;2022-11-10T09:49:08;10.40;76.30
1351;DHT22;669;50.206;9.998;2022-11-10T09:51:39;10.50;75.80
1351;DHT22;669;50.206;9.998;2022-11-10T09:54:24;10.50;75.20
1351;DHT22;669;50.206;9.998;2022-11-10T09:56:57;10.60;74.40
1351;DHT22;669;50.206;9.998;2022-11-10T09:59:28;10.70;74.40
1351;DHT22;669;50.206;9.998;2022-11-10T10:02:02;10.80;72.00
1351;DHT22;669;50.206;9.998;2022-11-10T10:05:03;10.80;71.70
1351;DHT22;669;50.206;9.998;2022-11-10T10:07:40;10.90;70.50
1351;DHT22;669;50.206;9.998;2022-11-10T10:10:14;11.10;70.20
1351;DHT22;669;50.206;9.998;2022-11-10T10:12:55;11.10;69.80
1351;DHT22;669;50.206;9.998;2022-11-10T10:15:31;11.20;70.00
1351;DHT22;669;50.206;9.998;2022-11-10T10:18:19;11.20;67.20
1351;DHT22;669;50.206;9.998;2022-11-10T10:21:03;11.30;67.00
1351;DHT22;669;50.206;9.998;2022-11-10T10:23:35;11.40;67.70
1351;DHT22;669;50.206;9.998;2022-11-10T10:26:26;11.60;67.90
1351;DHT22;669;50.206;9.998;2022-11-10T10:28:55;11.70;66.40
1351;DHT22;669;50.206;9.998;2022-11-10T10:31:38;11.70;64.80
1351;DHT22;669;50.206;9.998;2022-11-10T10:34:12;11.60;64.40
1351;DHT22;669;50.206;9.998;2022-11-10T10:36:41;11.50;63.20
1351;DHT22;669;50.206;9.998;2022-11-10T10:39:12;11.40;65.10
1351;DHT22;669;50.206;9.998;2022-11-10T10:41:44;11.30;65.30
1351;DHT22;669;50.206;9.998;2022-11-10T10:44:14;11.30;65.50
1351;DHT22;669;50.206;9.998;2022-11-10T10:46:45;11.40;65.30
1351;DHT22;669;50.206;9.998;2022-11-10T10:49:18;11.40;65.40
1351;DHT22;669;50.206;9.998;2022-11-10T10:52:04;11.50;64.90
1351;DHT22;669;50.206;9.998;2022-11-10T10:54:34;11.50;64.20
1351;DHT22;669;50.206;9.998;2022-11-10T10:57:05;11.50;64.40
1351;DHT22;669;50.206;9.998;2022-11-10T10:59:33;11.50;63.60
1351;DHT22;669;50.206;9.998;2022-11-10T11:02:01;11.50;63.50
1351;DHT22;669;50.206;9.998;2022-11-10T11:04:32;11.40;63.20
1351;DHT22;669;50.206;9.998;2022-11-10T11:07:03;11.40;63.80
1351;DHT22;669;50.206;9.998;2022-11-10T11:09:39;11.40;64.00
1351;DHT22;669;50.206;9.998;2022-11-10T11:12:10;11.50;63.90
1351;DHT22;669;50.206;9.998;2022-11-10T11:14:39;11.50;63.40
1351;DHT22;669;50.206;9.998;2022-11-10T11:17:13;11.70;63.50
1351;DHT22;669;50.206;9.998;2022-11-10T11:19:42;11.90;61.10
1351;DHT22;669;50.206;9.998;2022-11-10T11:22:41;12.20;61.00
1351;DHT22;669;50.206;9.998;2022-11-10T11:25:19;12.50;60.00
1351;DHT22;669;50.206;9.998;2022-11-10T11:27:58;12.80;59.30
1351;DHT22;669;50.206;9.998;2022-11-10T11:30:41;13.30;58.70
1351;DHT22;669;50.206;9.998;2022-11-10T11:33:32;13.60;57.70
1351;DHT22;669;50.206;9.998;2022-11-10T11:36:09;13.90;57.30
1351;DHT22;669;50.206;9.998;2022-11-10T11:38:49;14.20;56.00
1351;DHT22;669;50.206;9.998;2022-11-10T11:41:28;14.40;53.10
1351;DHT22;669;50.206;9.998;2022-11-10T11:44:11;14.30;52.70
1351;DHT22;669;50.206;9.998;2022-11-10T11:46:54;14.20;54.00
1351;DHT22;669;50.206;9.998;2022-11-10T11:49:40;14.30;54.10
1351;DHT22;669;50.206;9.998;2022-11-10T11:52:23;14.30;52.80
1351;DHT22;669;50.206;9.998;2022-11-10T11:55:06;14.00;52.90
1351;DHT22;669;50.206;9.998;2022-11-10T11:57:48;13.80;53.70
1351;DHT22;669;50.206;9.998;2022-11-10T12:00:21;13.90;53.80
1351;DHT22;669;50.206;9.998;2022-11-10T12:03:06;13.90;53.80
1351;DHT22;669;50.206;9.998;2022-11-10T12:05:51;14.20;55.00
1351;DHT22;669;50.206;9.998;2022-11-10T12:08:34;14.50;54.30
1351;DHT22;669;50.206;9.998;2022-11-10T12:11:08;14.80;54.30
1351;DHT22;669;50.206;9.998;2022-11-10T12:13:48;15.10;53.50
1351;DHT22;669;50.206;9.998;2022-11-10T12:16:21;15.30;52.10
1351;DHT22;669;50.206;9.998;2022-11-10T12:18:58;15.30;50.30
1351;DHT22;669;50.206;9.998;2022-11-10T12:21:37;15.20;51.80
1351;DHT22;669;50.206;9.998;2022-11-10T12:24:24;15.40;51.30
1351;DHT22;669;50.206;9.998;2022-11-10T12:26:57;15.70;50.70
1351;DHT22;669;50.206;9.998;2022-11-10T12:29:30;15.90;50.40
1351;DHT22;669;50.206;9.998;2022-11-10T12:32:04;16.00;50.00
1351;DHT22;669;50.206;9.998;2022-11-10T12:34:37;16.20;48.80
1351;DHT22;669;50.206;9.998;2022-11-10T12:37:14;16.30;49.60
1351;DHT22;669;50.206;9.998;2022-11-10T12:39:51;16.30;48.40
1351;DHT22;669;50.206;9.998;2022-11-10T12:42:21;16.20;49.00
1351;DHT22;669;50.206;9.998;2022-11-10T12:44:57;16.00;49.50
1351;DHT22;669;50.206;9.998;2022-11-10T12:47:29;15.80;48.80
1351;DHT22;669;50.206;9.998;2022-11-10T12:50:08;15.60;48.90
1351;DHT22;669;50.206;9.998;2022-11-10T12:52:40;15.50;50.30
1351;DHT22;669;50.206;9.998;2022-11-10T12:55:13;15.50;50.90
1351;DHT22;669;50.206;9.998;2022-11-10T12:57:42;15.60;49.50
1351;DHT22;669;50.206;9.998;2022-11-10T13:00:23;15.40;50.00
1351;DHT22;669;50.206;9.998;2022-11-10T13:02:54;15.40;50.50
1351;DHT22;669;50.206;9.998;2022-11-10T13:05:30;15.40;51.10
1351;DHT22;669;50.206;9.998;2022-11-10T13:08:23;15.60;50.00
1351;DHT22;669;50.206;9.998;2022-11-10T13:10:56;15.70;49.60
1351;DHT22;669;50.206;9.998;2022-11-10T13:13:27;15.80;49.20
1351;DHT22;669;50.206;9.998;2022-11-10T13:15:56;15.90;48.80
1351;DHT22;669;50.206;9.998;2022-11-10T13:18:58;15.80;48.60
1351;DHT22;669;50.206;9.998;2022-11-10T13:22:07;15.80;48.20
1351;DHT22;669;50.206;9.998;2022-11-10T13:24:37;15.90;49.20
1351;DHT22;669;50.206;9.998;2022-11-10T13:27:12;16.00;48.50
1351;DHT22;669;50.206;9.998;2022-11-10T13:29:59;16.20;47.60
1351;DHT22;669;50.206;9.998;2022-11-10T13:32:28;16.10;46.40
1351;DHT22;669;50.206;9.998;2022-11-10T13:37:58;15.40;46.40
1351;DHT22;669;50.206;9.998;2022-11-10T13:40:28;15.00;47.10
1351;DHT22;669;50.206;9.998;2022-11-10T13:43:24;14.70;48.20
1351;DHT22;669;50.206;9.998;2022-11-10T13:46:01;14.20;49.20
1351;DHT22;669;50.206;9.998;2022-11-10T13:48:48;14.20;50.20
1351;DHT22;669;50.206;9.998;2022-11-10T13:51:30;14.20;50.70
1351;DHT22;669;50.206;9.998;2022-11-10T13:54:20;14.30;50.70
1351;DHT22;669;50.206;9.998;2022-11-10T13:57:09;14.30;50.60
1351;DHT22;669;50.206;9.998;2022-11-10T13:59:47;14.30;49.70
1351;DHT22;669;50.206;9.998;2022-11-10T14:02:47;14.50;49.70
1351;DHT22;669;50.206;9.998;2022-11-10T14:08:45;14.50;49.60
1351;DHT22;669;50.206;9.998;2022-11-10T14:11:21;14.40;49.70
1351;DHT22;669;50.206;9.998;2022-11-10T14:13:55;14.50;48.20
1351;DHT22;669;50.206;9.998;2022-11-10T14:16:27;14.40;49.20
1351;DHT22;669;50.206;9.998;2022-11-10T14:19:03;14.40;49.20
1351;DHT22;669;50.206;9.998;2022-11-10T14:21:36;14.30;48.30
1351;DHT22;669;50.206;9.998;2022-11-10T14:24:15;14.20;49.10
1351;DHT22;669;50.206;9.998;2022-11-10T14:26:48;14.10;49.10
1351;DHT22;669;50.206;9.998;2022-11-10T14:29:28;14.10;48.50
1351;DHT22;669;50.206;9.998;2022-11-10T14:32:00;14.00;49.00
1351;DHT22;669;50.206;9.998;2022-11-10T14:34:31;14.00;49.10
1351;DHT22;669;50.206;9.998;2022-11-10T14:37:02;13.90;49.10
1351;DHT22;669;50.206;9.998;2022-11-10T14:39:31;13.80;49.00
1351;DHT22;669;50.206;9.998;2022-11-10T14:42:03;13.70;50.30
1351;DHT22;669;50.206;9.998;2022-11-10T14:44:33;13.70;49.70
1351;DHT22;669;50.206;9.998;2022-11-10T14:47:22;13.70;50.10
1351;DHT22;669;50.206;9.998;2022-11-10T14:50:14;13.60;50.20
1351;DHT22;669;50.206;9.998;2022-11-10T14:52:43;13.50;50.80
1351;DHT22;669;50.206;9.998;2022-11-10T14:55:17;13.40;50.90
1351;DHT22;669;50.206;9.998;2022-11-10T14:57:48;13.30;51.40
1351;DHT22;669;50.206;9.998;2022-11-10T15:00:18;13.20;51.70
1351;DHT22;669;50.206;9.998;2022-11-10T15:02:50;13.10;51.60
1351;DHT22;669;50.206;9.998;2022-11-10T15:05:19;13.00;52.10
1351;DHT22;669;50.206;9.998;2022-11-10T15:07:47;12.80;52.80
1351;DHT22;669;50.206;9.998;2022-11-10T15:10:19;12.80;52.80
1351;DHT22;669;50.206;9.998;2022-11-10T15:13:02;12.60;53.40
1351;DHT22;669;50.206;9.998;2022-11-10T15:15:30;12.50;53.90
1351;DHT22;669;50.206;9.998;2022-11-10T15:17:59;12.40;54.50
1351;DHT22;669;50.206;9.998;2022-11-10T15:20:33;12.30;54.60
1351;DHT22;669;50.206;9.998;2022-11-10T15:23:03;12.10;55.50
1351;DHT22;669;50.206;9.998;2022-11-10T15:25:34;11.90;56.00
1351;DHT22;669;50.206;9.998;2022-11-10T15:28:17;11.80;56.50
1351;DHT22;669;50.206;9.998;2022-11-10T15:30:49;11.60;57.00
1351;DHT22;669;50.206;9.998;2022-11-10T15:33:23;11.50;57.70
1351;DHT22;669;50.206;9.998;2022-11-10T15:35:54;11.30;58.20
1351;DHT22;669;50.206;9.998;2022-11-10T15:38:27;11.10;58.90
1351;DHT22;669;50.206;9.998;2022-11-10T15:41:10;10.90;60.20
1351;DHT22;669;50.206;9.998;2022-11-10T15:43:38;10.70;60.50
1351;DHT22;669;50.206;9.998;2022-11-10T15:46:12;10.60;61.30
1351;DHT22;669;50.206;9.998;2022-11-10T15:48:47;10.50;62.60
1351;DHT22;669;50.206;9.998;2022-11-10T15:51:17;10.40;63.50
1351;DHT22;669;50.206;9.998;2022-11-10T15:53:52;10.20;63.60
1351;DHT22;669;50.206;9.998;2022-11-10T15:56:21;10.10;64.40
1351;DHT22;669;50.206;9.998;2022-11-10T15:58:51;10.00;65.40
1351;DHT22;669;50.206;9.998;2022-11-10T16:01:26;9.90;66.50
1351;DHT22;669;50.206;9.998;2022-11-10T16:03:55;9.80;67.50
1351;DHT22;669;50.206;9.998;2022-11-10T16:06:23;9.70;67.30
1351;DHT22;669;50.206;9.998;2022-11-10T16:08:55;9.60;67.30
1351;DHT22;669;50.206;9.998;2022-11-10T16:11:23;9.40;67.80
1351;DHT22;669;50.206;9.998;2022-11-10T16:13:52;9.30;68.50
1351;DHT22;669;50.206;9.998;2022-11-10T16:16:21;9.10;68.90
1351;DHT22;669;50.206;9.998;2022-11-10T16:18:50;9.10;69.90
1351;DHT22;669;50.206;9.998;2022-11-10T16:21:21;9.00;70.20
1351;DHT22;669;50.206;9.998;2022-11-10T16:23:50;9.00;70.40
1351;DHT22;669;50.206;9.998;2022-11-10T16:26:20;8.90;69.20
1351;DHT22;669;50.206;9.998;2022-11-10T16:28:49;8.80;71.10
1351;DHT22;669;50.206;9.998;2022-11-10T16:31:18;8.70;72.50
1351;DHT22;669;50.206;9.998;2022-11-10T16:33:47;8.70;73.80
1351;DHT22;669;50.206;9.998;2022-11-10T16:36:24;8.60;73.80
1351;DHT22;669;50.206;9.998;2022-11-10T16:38:53;8.60;75.30
1351;DHT22;669;50.206;9.998;2022-11-10T16:41:22;8.60;75.90
1351;DHT22;669;50.206;9.998;2022-11-10T16:43:50;8.60;75.90
1351;DHT22;669;50.206;9.998;2022-11-10T16:46:20;8.60;76.10
1351;DHT22;669;50.206;9.998;2022-11-10T16:48:49;8.60;76.10
1351;DHT22;669;50.206;9.998;2022-11-10T16:51:18;8.50;75.50
1351;DHT22;669;50.206;9.998;2022-11-10T16:53:54;8.50;75.20
1351;DHT22;669;50.206;9.998;2022-11-10T16:56:22;8.50;75.20
1351;DHT22;669;50.206;9.998;2022-11-10T16:58:50;8.40;75.10
1351;DHT22;669;50.206;9.998;2022-11-10T17:01:19;8.30;69.70
1351;DHT22;669;50.206;9.998;2022-11-10T17:03:49;8.00;70.40
1351;DHT22;669;50.206;9.998;2022-11-10T17:06:19;7.90;73.20